createdAt,value
2018-12-14T00:02:01.421Z,99.90
2018-12-14T00:04:29.908Z,99.90
2018-12-14T00:06:58.265Z,99.90
2018-12-14T00:09:26.632Z,99.90
2018-12-14T00:11:54.995Z,99.90
2018-12-14T00:14:23.392Z,99.90
2018-12-14T00:16:51.777Z,99.90
2018-12-14T00:19:20.145Z,99.90
2018-12-14T00:21:48.503Z,99.90
2018-12-14T00:24:17.471Z,99.90
2018-12-14T00:26:45.847Z,99.90
2018-12-14T00:29:14.221Z,99.90
2018-12-14T00:31:42.614Z,99.90
2018-12-14T00:34:10.998Z,99.90
2018-12-14T00:36:39.586Z,99.90
2018-12-14T00:39:09.227Z,99.90
2018-12-14T00:41:37.587Z,99.90
2018-12-14T00:44:05.970Z,99.90
2018-12-14T00:46:36.371Z,99.90
2018-12-14T00:49:04.838Z,99.90
2018-12-14T00:51:33.199Z,99.90
2018-12-14T00:54:01.573Z,99.90
2018-12-14T00:56:29.941Z,99.90
2018-12-14T00:58:58.306Z,99.90
2018-12-14T01:01:26.668Z,99.90
2018-12-14T01:03:55.030Z,99.90
2018-12-14T01:06:23.619Z,99.90
2018-12-14T01:08:52.259Z,99.90
2018-12-14T01:11:20.615Z,99.90
2018-12-14T01:13:48.975Z,99.90
2018-12-14T01:16:17.681Z,99.90
2018-12-14T01:18:46.031Z,99.90
2018-12-14T01:21:14.711Z,99.90
2018-12-14T01:23:43.083Z,99.90
2018-12-14T01:26:11.439Z,99.90
2018-12-14T01:28:39.790Z,99.90
2018-12-14T01:31:08.166Z,99.90
2018-12-14T01:33:36.532Z,99.90
2018-12-14T01:36:04.902Z,99.90
2018-12-14T01:38:33.287Z,99.90
2018-12-14T01:41:01.841Z,99.90
2018-12-14T01:43:30.472Z,99.90
2018-12-14T01:45:59.191Z,99.90
2018-12-14T01:48:27.821Z,99.90
2018-12-14T01:50:56.176Z,99.90
2018-12-14T01:53:24.602Z,99.90
2018-12-14T01:55:52.954Z,99.90
2018-12-14T01:58:21.325Z,99.90
2018-12-14T02:00:49.819Z,99.90
2018-12-14T02:03:18.388Z,99.90
2018-12-14T02:05:46.730Z,99.90
2018-12-14T02:08:15.103Z,99.90
2018-12-14T02:10:43.586Z,99.90
2018-12-14T02:13:11.938Z,99.90
2018-12-14T02:15:40.354Z,99.90
2018-12-14T02:18:08.713Z,99.90
2018-12-14T02:20:37.120Z,99.90
2018-12-14T02:23:05.566Z,99.90
2018-12-14T02:25:34.176Z,99.90
2018-12-14T02:28:02.537Z,99.90
2018-12-14T02:30:41.692Z,99.90
2018-12-14T02:33:10.060Z,99.90
2018-12-14T02:35:38.431Z,99.90
2018-12-14T02:38:06.919Z,99.90
2018-12-14T02:40:35.284Z,99.90
2018-12-14T02:43:03.896Z,99.90
2018-12-14T02:45:32.406Z,99.90
2018-12-14T02:48:00.755Z,99.90
2018-12-14T02:50:29.112Z,99.90
2018-12-14T02:52:57.497Z,99.90
2018-12-14T02:55:25.858Z,99.90
2018-12-14T02:57:54.232Z,99.90
2018-12-14T03:00:22.664Z,99.90
2018-12-14T03:02:51.172Z,99.90
2018-12-14T03:05:19.620Z,99.90
2018-12-14T03:07:48.024Z,99.90
2018-12-14T03:10:16.381Z,99.90
2018-12-14T03:12:44.776Z,99.90
2018-12-14T03:15:13.747Z,99.90
2018-12-14T03:17:42.085Z,99.90
2018-12-14T03:20:10.637Z,99.90
2018-12-14T03:22:39.056Z,99.90
2018-12-14T03:25:07.640Z,99.90
2018-12-14T03:27:36.002Z,99.90
2018-12-14T03:30:05.743Z,99.90
2018-12-14T03:32:34.102Z,99.90
2018-12-14T03:35:02.455Z,99.90
2018-12-14T03:37:30.963Z,99.90
2018-12-14T03:39:59.356Z,99.90
2018-12-14T03:42:33.928Z,99.90
2018-12-14T03:44:58.103Z,99.90
2018-12-14T03:47:26.446Z,99.90
2018-12-14T03:49:54.795Z,99.90
2018-12-14T03:52:23.168Z,99.90
2018-12-14T03:54:51.521Z,99.90
2018-12-14T03:57:19.952Z,99.90
2018-12-14T03:59:48.727Z,99.90
2018-12-14T04:02:17.082Z,99.90
2018-12-14T04:04:45.438Z,99.90
2018-12-14T04:07:13.804Z,99.90
2018-12-14T04:09:42.147Z,99.90
2018-12-14T04:12:10.506Z,99.90
2018-12-14T04:14:39.193Z,99.90
2018-12-14T04:17:07.536Z,99.90
2018-12-14T04:19:35.891Z,99.90
2018-12-14T04:22:04.266Z,99.90
2018-12-14T04:24:32.611Z,99.90
2018-12-14T04:27:01.076Z,99.90
2018-12-14T04:29:29.446Z,99.90
2018-12-14T04:31:57.817Z,99.90
2018-12-14T04:34:26.181Z,99.90
2018-12-14T04:36:54.569Z,99.90
2018-12-14T04:39:22.913Z,99.90
2018-12-14T04:41:51.277Z,99.90
2018-12-14T04:44:19.656Z,99.90
2018-12-14T04:46:48.015Z,99.90
2018-12-14T04:49:16.493Z,99.90
2018-12-14T04:51:44.852Z,99.90
2018-12-14T04:54:13.215Z,99.90
2018-12-14T04:56:41.580Z,99.90
2018-12-14T04:59:09.956Z,99.90
2018-12-14T05:01:38.327Z,99.90
2018-12-14T05:04:06.682Z,99.90
2018-12-14T05:06:35.070Z,99.90
2018-12-14T05:09:04.558Z,99.90
2018-12-14T05:11:32.919Z,99.90
2018-12-14T05:14:01.321Z,99.90
2018-12-14T05:16:31.951Z,99.90
2018-12-14T05:19:00.308Z,99.90
2018-12-14T05:21:28.682Z,99.90
2018-12-14T05:23:57.036Z,99.90
2018-12-14T05:26:25.570Z,99.90
2018-12-14T05:28:53.948Z,99.90
2018-12-14T05:31:22.300Z,99.90
2018-12-14T05:33:51.075Z,99.90
2018-12-14T05:36:19.691Z,99.90
2018-12-14T05:38:48.698Z,99.90
2018-12-14T05:41:17.088Z,99.90
2018-12-14T05:43:45.492Z,99.90
2018-12-14T05:46:13.835Z,99.90
2018-12-14T05:48:42.189Z,99.90
2018-12-14T05:51:10.569Z,99.90
2018-12-14T05:53:38.935Z,99.90
2018-12-14T05:56:07.287Z,99.90
2018-12-14T05:58:35.662Z,99.90
2018-12-14T06:01:04.020Z,99.90
2018-12-14T06:03:32.383Z,99.90
2018-12-14T06:06:01.012Z,99.90
2018-12-14T06:08:29.378Z,99.90
2018-12-14T06:10:57.756Z,99.90
2018-12-14T06:13:26.149Z,99.90
2018-12-14T06:15:54.617Z,99.90
2018-12-14T06:18:22.975Z,99.90
2018-12-14T06:20:51.452Z,99.90
2018-12-14T06:23:19.922Z,99.90
2018-12-14T06:25:48.411Z,99.90
2018-12-14T06:28:17.117Z,99.90
2018-12-14T06:30:45.486Z,99.90
2018-12-14T06:33:13.971Z,99.90
2018-12-14T06:35:42.346Z,99.90
2018-12-14T06:38:10.934Z,99.90
2018-12-14T06:40:39.391Z,99.90
2018-12-14T06:43:07.762Z,99.90
2018-12-14T06:45:36.256Z,99.90
2018-12-14T06:48:04.630Z,99.90
2018-12-14T06:50:33.521Z,99.90
2018-12-14T06:53:02.269Z,99.90
2018-12-14T06:55:30.886Z,99.90
2018-12-14T06:57:59.288Z,99.90
2018-12-14T07:00:27.631Z,99.90
2018-12-14T07:02:56.013Z,99.90
2018-12-14T07:05:24.413Z,99.90
2018-12-14T07:07:52.784Z,99.90
2018-12-14T07:10:21.473Z,99.90
2018-12-14T07:12:49.875Z,99.90
2018-12-14T07:15:18.271Z,99.90
2018-12-14T07:17:46.745Z,99.90
2018-12-14T07:20:15.133Z,99.90
2018-12-14T07:22:43.491Z,99.90
2018-12-14T07:25:11.858Z,99.90
2018-12-14T07:27:40.482Z,99.90
2018-12-14T07:30:09.015Z,99.90
2018-12-14T07:32:38.173Z,99.90
2018-12-14T07:35:07.393Z,99.90
2018-12-14T07:37:35.761Z,99.90
2018-12-14T07:40:05.275Z,99.90
2018-12-14T07:42:33.865Z,99.90
2018-12-14T07:45:02.233Z,99.90
2018-12-14T07:47:30.591Z,99.90
2018-12-14T07:49:58.985Z,99.90
2018-12-14T07:52:27.580Z,99.90
2018-12-14T07:54:56.035Z,99.90
2018-12-14T07:57:24.425Z,99.90
2018-12-14T07:59:52.770Z,99.90
2018-12-14T08:02:21.133Z,99.90
2018-12-14T08:04:50.053Z,99.90
2018-12-14T08:07:18.565Z,99.90
2018-12-14T08:09:46.934Z,99.90
2018-12-14T08:12:15.618Z,99.90
2018-12-14T08:14:44.316Z,99.90
2018-12-14T08:17:12.691Z,99.90
2018-12-14T08:19:41.089Z,99.90
2018-12-14T08:22:09.473Z,99.90
2018-12-14T08:24:37.837Z,99.90
2018-12-14T08:27:06.547Z,99.90
2018-12-14T08:29:34.911Z,99.90
2018-12-14T08:32:03.305Z,99.90
2018-12-14T08:34:32.016Z,99.90
2018-12-14T08:37:00.398Z,99.90
2018-12-14T08:39:28.758Z,99.90
2018-12-14T08:41:57.353Z,99.90
2018-12-14T08:44:25.710Z,99.90
2018-12-14T08:46:54.073Z,99.90
2018-12-14T08:49:22.528Z,99.90
2018-12-14T08:51:50.890Z,99.90
2018-12-14T08:54:19.271Z,99.90
2018-12-14T08:56:47.674Z,99.90
2018-12-14T08:59:16.041Z,99.90
2018-12-14T09:01:44.394Z,99.90
2018-12-14T09:04:14.896Z,99.90
2018-12-14T09:06:43.635Z,99.90
2018-12-14T09:09:11.992Z,99.90
2018-12-14T09:11:40.494Z,99.90
2018-12-14T09:14:08.858Z,99.90
2018-12-14T09:16:37.214Z,99.90
2018-12-14T09:19:05.576Z,99.90
2018-12-14T09:21:34.056Z,99.90
2018-12-14T09:24:02.410Z,99.90
2018-12-14T09:26:30.979Z,99.90
2018-12-14T09:28:59.785Z,99.90
2018-12-14T09:31:28.469Z,99.90
2018-12-14T09:33:57.003Z,99.90
2018-12-14T09:36:25.843Z,99.90
2018-12-14T09:38:54.797Z,99.90
2018-12-14T09:41:23.373Z,99.90
2018-12-14T09:43:54.541Z,99.90
2018-12-14T09:46:22.112Z,99.90
2018-12-14T09:48:50.503Z,99.90
2018-12-14T09:51:18.988Z,99.90
2018-12-14T09:53:47.452Z,99.90
2018-12-14T09:56:15.845Z,99.90
2018-12-14T09:58:44.208Z,99.90
2018-12-14T10:01:12.590Z,99.90
2018-12-14T10:03:41.417Z,99.90
2018-12-14T10:06:15.536Z,99.90
2018-12-14T10:08:40.139Z,99.90
2018-12-14T10:11:09.331Z,99.90
2018-12-14T10:13:37.880Z,99.90
2018-12-14T10:16:06.664Z,99.90
2018-12-14T10:18:35.217Z,99.90
2018-12-14T10:21:03.698Z,99.90
2018-12-14T10:23:32.616Z,99.90
2018-12-14T10:26:01.007Z,99.90
2018-12-14T10:28:29.368Z,99.90
2018-12-14T10:30:57.733Z,99.90
2018-12-14T10:33:26.135Z,99.90
2018-12-14T10:35:55.126Z,99.90
2018-12-14T10:38:23.475Z,99.90
2018-12-14T10:40:51.854Z,99.90
2018-12-14T10:43:21.506Z,99.90
2018-12-14T10:45:50.269Z,99.90
2018-12-14T10:48:19.195Z,99.90
2018-12-14T10:50:47.814Z,99.90
2018-12-14T10:53:16.183Z,99.90
2018-12-14T10:55:44.551Z,99.90
2018-12-14T10:58:12.909Z,98.80
2018-12-14T11:00:46.583Z,99.60
2018-12-14T11:03:14.946Z,99.80
2018-12-14T11:05:43.308Z,97.70
2018-12-14T11:08:11.766Z,98.00
2018-12-14T11:10:40.127Z,97.30
2018-12-14T11:13:08.492Z,97.40
2018-12-14T11:15:36.978Z,97.40
2018-12-14T11:18:05.329Z,94.50
2018-12-14T11:20:33.965Z,96.20
2018-12-14T11:23:02.332Z,95.20
2018-12-14T11:25:30.681Z,95.30
2018-12-14T11:27:59.054Z,93.50
2018-12-14T11:30:27.466Z,92.30
2018-12-14T11:32:55.834Z,91.20
2018-12-14T11:35:24.330Z,89.90
2018-12-14T11:37:52.756Z,90.90
2018-12-14T11:40:21.332Z,93.10
2018-12-14T11:42:49.694Z,90.10
2018-12-14T11:45:18.099Z,91.40
2018-12-14T11:47:46.463Z,91.00
2018-12-14T11:50:14.833Z,91.10
2018-12-14T11:52:43.202Z,93.40
2018-12-14T11:55:11.683Z,91.40
2018-12-14T11:57:40.055Z,90.50
2018-12-14T12:00:12.117Z,92.00
2018-12-14T12:02:43.178Z,92.60
2018-12-14T12:05:11.120Z,93.40
2018-12-14T12:07:40.897Z,93.10
2018-12-14T12:10:10.534Z,93.00
2018-12-14T12:12:39.565Z,93.60
2018-12-14T12:15:09.558Z,93.30
2018-12-14T12:17:39.343Z,94.20
2018-12-14T12:20:08.679Z,94.60
2018-12-14T12:22:37.026Z,94.00
2018-12-14T12:28:04.285Z,94.80
2018-12-14T12:30:33.224Z,95.80
2018-12-14T12:33:01.868Z,96.30
2018-12-14T12:35:30.239Z,95.30
2018-12-14T12:37:58.943Z,97.70
2018-12-14T12:40:27.301Z,99.80
2018-12-14T12:42:55.988Z,99.90
2018-12-14T12:45:24.371Z,99.90
2018-12-14T12:47:52.728Z,99.90
2018-12-14T12:50:21.136Z,99.90
2018-12-14T12:52:49.519Z,99.90
2018-12-14T12:55:17.882Z,99.90
2018-12-14T12:57:46.262Z,99.90
2018-12-14T13:00:14.629Z,99.90
2018-12-14T13:02:43.571Z,99.90
2018-12-14T13:05:12.082Z,99.90
2018-12-14T13:07:40.476Z,99.90
2018-12-14T13:10:09.210Z,99.90
2018-12-14T13:12:37.837Z,99.90
2018-12-14T13:15:06.947Z,99.90
2018-12-14T13:17:35.450Z,99.90
2018-12-14T13:20:04.202Z,99.90
2018-12-14T13:22:32.603Z,99.90
2018-12-14T13:25:01.491Z,99.90
2018-12-14T13:27:30.222Z,99.90
2018-12-14T13:29:58.617Z,99.90
2018-12-14T13:32:27.264Z,99.90
2018-12-14T13:34:55.628Z,99.90
2018-12-14T13:37:23.998Z,99.90
2018-12-14T13:39:52.371Z,99.90
2018-12-14T13:42:20.754Z,99.90
2018-12-14T13:44:49.162Z,98.00
2018-12-14T13:47:17.536Z,99.60
2018-12-14T13:49:45.895Z,99.90
2018-12-14T13:52:14.264Z,99.90
2018-12-14T13:54:42.658Z,99.90
2018-12-14T13:57:11.057Z,99.90
2018-12-14T13:59:39.442Z,99.90
2018-12-14T14:02:08.097Z,99.90
2018-12-14T14:04:36.574Z,99.90
2018-12-14T14:07:05.479Z,99.90
2018-12-14T14:09:33.959Z,99.90
2018-12-14T14:12:02.543Z,99.90
2018-12-14T14:14:30.901Z,99.90
2018-12-14T14:16:59.679Z,99.90
2018-12-14T14:19:28.398Z,99.90
2018-12-14T14:21:56.754Z,99.90
2018-12-14T14:24:25.272Z,99.90
2018-12-14T14:26:53.806Z,99.90
2018-12-14T14:29:22.173Z,99.90
2018-12-14T14:31:50.722Z,99.90
2018-12-14T14:34:19.268Z,99.90
2018-12-14T14:36:47.645Z,99.90
2018-12-14T14:39:16.311Z,99.90
2018-12-14T14:41:45.329Z,99.90
2018-12-14T14:44:13.687Z,99.90
2018-12-14T14:46:42.047Z,99.90
2018-12-14T14:49:10.434Z,99.90
2018-12-14T14:51:38.999Z,99.90
2018-12-14T14:54:07.364Z,99.90
2018-12-14T14:56:35.758Z,99.90
2018-12-14T14:59:04.131Z,99.90
2018-12-14T15:01:32.667Z,99.90
2018-12-14T15:04:01.353Z,99.90
2018-12-14T15:06:29.826Z,99.90
2018-12-14T15:08:58.694Z,99.90
2018-12-14T15:11:27.413Z,99.90
2018-12-14T15:13:56.101Z,99.90
2018-12-14T15:16:24.643Z,99.90
2018-12-14T15:18:53.176Z,99.90
2018-12-14T15:21:21.551Z,99.90
2018-12-14T15:23:50.207Z,99.90
2018-12-14T15:26:18.769Z,99.90
2018-12-14T15:28:47.148Z,99.90
2018-12-14T15:31:15.619Z,99.90
2018-12-14T15:33:44.340Z,99.90
2018-12-14T15:36:13.007Z,99.90
2018-12-14T15:38:41.677Z,99.90
2018-12-14T15:41:10.373Z,99.90
2018-12-14T15:43:38.863Z,99.90
2018-12-14T15:46:07.260Z,99.90
2018-12-14T15:48:35.687Z,99.90
2018-12-14T15:51:04.511Z,99.90
2018-12-14T15:53:32.868Z,99.90
2018-12-14T15:56:01.258Z,99.90
2018-12-14T15:58:29.625Z,99.90
2018-12-14T16:00:57.998Z,99.90
2018-12-14T16:03:26.408Z,99.90
2018-12-14T16:05:54.837Z,99.90
2018-12-14T16:08:23.249Z,99.90
2018-12-14T16:10:51.644Z,99.90
2018-12-14T16:13:20.264Z,99.90
2018-12-14T16:15:48.840Z,99.90
2018-12-14T16:18:17.317Z,99.90
2018-12-14T16:20:45.801Z,99.90
2018-12-14T16:23:14.167Z,99.90
2018-12-14T16:25:42.577Z,99.90
2018-12-14T16:28:11.078Z,99.90
2018-12-14T16:30:39.495Z,99.90
2018-12-14T16:33:07.885Z,99.90
2018-12-14T16:35:36.252Z,99.90
2018-12-14T16:38:05.079Z,99.90
2018-12-14T16:40:33.643Z,99.90
2018-12-14T16:43:02.026Z,99.90
2018-12-14T16:45:30.404Z,99.90
2018-12-14T16:47:58.803Z,99.90
2018-12-14T16:50:27.164Z,99.90
2018-12-14T16:52:55.536Z,99.90
2018-12-14T16:55:23.918Z,99.90
2018-12-14T16:57:52.294Z,99.90
2018-12-14T17:00:20.760Z,99.90
2018-12-14T17:02:49.153Z,99.90
2018-12-14T17:05:17.569Z,99.90
2018-12-14T17:07:45.928Z,99.90
2018-12-14T17:10:14.541Z,99.90
2018-12-14T17:12:43.044Z,99.90
2018-12-14T17:15:11.430Z,99.90
2018-12-14T17:17:39.888Z,99.90
2018-12-14T17:20:08.682Z,99.90
2018-12-14T17:22:37.366Z,99.90
2018-12-14T17:25:06.852Z,99.90
2018-12-14T17:27:35.278Z,99.90
2018-12-14T17:30:04.626Z,99.90
2018-12-14T17:32:33.051Z,99.90
2018-12-14T17:35:01.422Z,99.90
2018-12-14T17:37:29.772Z,99.90
2018-12-14T17:39:58.204Z,99.90
2018-12-14T17:42:26.743Z,99.90
2018-12-14T17:44:55.131Z,99.90
2018-12-14T17:47:23.591Z,99.90
2018-12-14T17:49:51.994Z,99.90
2018-12-14T17:52:20.694Z,99.90
2018-12-14T17:54:49.391Z,99.90
2018-12-14T17:57:17.760Z,99.90
2018-12-14T17:59:46.316Z,99.90
2018-12-14T18:02:14.710Z,99.90
2018-12-14T18:04:43.479Z,99.90
2018-12-14T18:07:11.857Z,99.90
2018-12-14T18:09:40.265Z,99.90
2018-12-14T18:12:09.534Z,99.90
2018-12-14T18:14:37.890Z,99.90
2018-12-14T18:17:06.405Z,99.90
2018-12-14T18:19:34.768Z,99.90
2018-12-14T18:22:03.364Z,99.90
2018-12-14T18:24:31.746Z,99.90
2018-12-14T18:27:00.098Z,99.90
2018-12-14T18:29:28.467Z,99.90
2018-12-14T18:31:56.858Z,99.90
2018-12-14T18:34:25.279Z,99.90
2018-12-14T18:36:53.846Z,99.90
2018-12-14T18:39:22.247Z,99.90
2018-12-14T18:41:50.620Z,99.90
2018-12-14T18:44:19.012Z,99.90
2018-12-14T18:46:47.515Z,99.90
2018-12-14T18:49:15.869Z,99.90
2018-12-14T18:51:44.252Z,99.90
2018-12-14T18:54:12.655Z,99.90
2018-12-14T18:56:41.613Z,99.90
2018-12-14T18:59:10.322Z,99.90
2018-12-14T19:01:39.039Z,99.90
2018-12-14T19:04:07.405Z,99.90
2018-12-14T19:06:35.801Z,99.90
2018-12-14T19:09:05.406Z,99.90
2018-12-14T19:11:33.785Z,99.90
2018-12-14T19:14:02.156Z,99.90
2018-12-14T19:16:30.825Z,99.90
2018-12-14T19:18:59.164Z,99.90
2018-12-14T19:21:27.545Z,99.90
2018-12-14T19:23:55.981Z,99.90
2018-12-14T19:26:24.337Z,99.90
2018-12-14T19:28:52.700Z,99.90
2018-12-14T19:31:21.074Z,99.90
2018-12-14T19:33:49.445Z,99.90
2018-12-14T19:36:18.140Z,99.90
2018-12-14T19:38:46.780Z,99.90
2018-12-14T19:41:15.166Z,99.90
2018-12-14T19:43:43.677Z,99.90
2018-12-14T19:46:12.318Z,99.90
2018-12-14T19:48:41.003Z,99.90
2018-12-14T19:51:09.430Z,99.90
2018-12-14T19:53:37.833Z,99.90
2018-12-14T19:56:06.214Z,99.90
2018-12-14T19:58:34.568Z,99.90
2018-12-14T20:01:02.992Z,99.90
2018-12-14T20:03:31.344Z,99.90
2018-12-14T20:05:59.901Z,99.90
2018-12-14T20:08:28.333Z,99.90
2018-12-14T20:10:56.990Z,99.90
2018-12-14T20:13:25.395Z,99.90
2018-12-14T20:15:57.603Z,99.90
2018-12-14T20:18:24.155Z,99.90
2018-12-14T20:20:52.659Z,99.90
2018-12-14T20:23:21.135Z,99.90
2018-12-14T20:25:49.511Z,99.90
2018-12-14T20:28:17.870Z,99.90
2018-12-14T20:30:46.282Z,99.90
2018-12-14T20:33:14.655Z,99.90
2018-12-14T20:35:43.007Z,99.90
2018-12-14T20:38:11.512Z,99.90
2018-12-14T20:40:39.961Z,99.90
2018-12-14T20:43:08.342Z,99.90
2018-12-14T20:45:36.734Z,99.90
2018-12-14T20:48:05.185Z,99.90
2018-12-14T20:50:33.864Z,99.90
2018-12-14T20:53:02.295Z,99.90
2018-12-14T20:55:30.854Z,99.90
2018-12-14T20:57:59.227Z,99.90
2018-12-14T21:00:27.867Z,99.90
2018-12-14T21:02:56.245Z,99.90
2018-12-14T21:05:24.734Z,99.90
2018-12-14T21:07:53.165Z,99.90
2018-12-14T21:10:21.817Z,99.90
2018-12-14T21:12:50.491Z,99.90
2018-12-14T21:15:19.149Z,99.90
2018-12-14T21:17:47.512Z,99.90
2018-12-14T21:20:15.873Z,99.90
2018-12-14T21:22:44.244Z,99.00
2018-12-14T21:25:12.597Z,99.90
2018-12-14T21:27:41.065Z,99.90
2018-12-14T21:30:10.136Z,99.30
2018-12-14T21:32:38.508Z,99.00
2018-12-14T21:35:07.018Z,98.40
2018-12-14T21:37:35.431Z,99.90
2018-12-14T21:40:04.618Z,99.90
2018-12-14T21:42:34.282Z,99.30
2018-12-14T21:45:02.911Z,99.10
2018-12-14T21:47:31.287Z,99.90
2018-12-14T21:49:59.859Z,99.90
2018-12-14T21:52:28.244Z,99.40
2018-12-14T21:54:56.655Z,99.90
2018-12-14T21:57:25.020Z,99.90
2018-12-14T21:59:53.724Z,99.90
2018-12-14T22:02:22.116Z,99.40
2018-12-14T22:04:50.482Z,99.90
2018-12-14T22:07:18.865Z,98.60
2018-12-14T22:09:48.333Z,99.90
2018-12-14T22:12:16.899Z,99.90
2018-12-14T22:14:45.287Z,99.10
2018-12-14T22:17:13.636Z,99.90
2018-12-14T22:19:41.979Z,98.00
2018-12-14T22:22:10.386Z,98.60
2018-12-14T22:24:39.039Z,96.50
2018-12-14T22:27:07.713Z,94.60
2018-12-14T22:29:36.502Z,91.30
2018-12-14T22:32:05.021Z,91.40
2018-12-14T22:34:33.508Z,90.70
2018-12-14T22:37:01.877Z,90.10
2018-12-14T22:39:30.556Z,92.80
2018-12-14T22:41:58.909Z,92.30
2018-12-14T22:44:27.328Z,92.00
2018-12-14T22:46:55.994Z,90.70
2018-12-14T22:49:24.387Z,93.10
2018-12-14T22:51:52.766Z,93.00
2018-12-14T22:54:21.132Z,90.90
2018-12-14T22:56:49.496Z,84.60
2018-12-14T22:59:17.889Z,82.30
2018-12-14T23:01:46.251Z,81.50
2018-12-14T23:04:14.944Z,83.40
2018-12-14T23:06:43.672Z,84.80
2018-12-14T23:09:12.037Z,83.00
2018-12-14T23:11:40.620Z,83.80
2018-12-14T23:14:09.026Z,83.30
2018-12-14T23:16:37.405Z,83.20
2018-12-14T23:19:05.785Z,82.20
2018-12-14T23:21:34.170Z,87.50
2018-12-14T23:24:02.620Z,90.00
2018-12-14T23:26:30.985Z,90.10
2018-12-14T23:28:59.366Z,87.40
2018-12-14T23:31:27.736Z,88.50
2018-12-14T23:33:56.082Z,85.50
2018-12-14T23:36:24.461Z,86.80
2018-12-14T23:38:52.826Z,86.80
2018-12-14T23:41:21.195Z,89.10
2018-12-14T23:43:50.023Z,94.40
2018-12-14T23:46:18.498Z,91.50
2018-12-14T23:48:46.878Z,92.90
2018-12-14T23:51:15.321Z,97.80
2018-12-14T23:53:43.686Z,98.90
2018-12-14T23:56:12.365Z,95.50
2018-12-14T23:58:40.842Z,87.40
